Time;durP1;ratioP1;P1;durP2;ratioP2;P2;SDS_P1;SDS_P2;PMS_P1;PMS_P2;Temp;Humidity;BMP_temperature;BMP_pressure;BME280_temperature;BME280_humidity;BME280_pressure;Samples;Min_cycle;Max_cycle;Signal;HPM_P1;HPM_P2
2023/04/14 00:00:16;;;;;;;38.85;26.17;;;;;;;15.99;47.19;92219.19;4956394;28;20035;-94
2023/04/14 00:02:41;;;;;;;35.70;26.08;;;;;;;16.02;47.14;92212.66;4958078;28;20396;-92
2023/04/14 00:05:07;;;;;;;33.95;23.05;;;;;;;16.04;47.13;92215.59;4976628;28;20026;-93
2023/04/14 00:07:33;;;;;;;37.17;26.52;;;;;;;16.05;46.95;92213.63;4973899;28;20057;-92
2023/04/14 00:09:58;;;;;;;36.50;25.92;;;;;;;16.05;47.29;92199.97;4973873;28;20668;-94
2023/04/14 00:12:24;;;;;;;36.88;25.50;;;;;;;16.07;46.94;92202.91;4975263;28;20052;-93
2023/04/14 00:14:49;;;;;;;35.92;24.50;;;;;;;16.04;47.11;92196.53;4959796;28;20042;-93
2023/04/14 00:17:15;;;;;;;37.10;23.73;;;;;;;16.03;47.04;92197.03;4982229;28;20058;-93
2023/04/14 00:19:40;;;;;;;36.25;25.15;;;;;;;16.03;47.27;92192.31;4976787;28;20049;-92
2023/04/14 00:22:06;;;;;;;36.88;24.63;;;;;;;16.03;47.00;92192.31;4975071;28;20555;-93
2023/04/14 00:24:31;;;;;;;36.60;24.15;;;;;;;16.06;46.99;92183.09;4975738;28;20048;-94
2023/04/14 00:26:57;;;;;;;35.75;25.40;;;;;;;16.02;46.99;92185.41;4976098;28;20076;-92
2023/04/14 00:29:22;;;;;;;32.72;23.27;;;;;;;16.06;46.95;92188.56;4976194;28;20042;-93
2023/04/14 00:31:48;;;;;;;34.67;23.45;;;;;;;16.01;46.75;92192.16;4975304;28;20112;-92
2023/04/14 00:34:13;;;;;;;30.60;22.95;;;;;;;16.03;47.05;92186.13;4975992;28;20042;-93
2023/04/14 00:36:39;;;;;;;30.38;22.40;;;;;;;16.00;47.14;92179.78;4975948;28;20045;-93
2023/04/14 00:39:04;;;;;;;32.03;21.80;;;;;;;16.05;47.18;92180.91;4968175;28;20034;-94
2023/04/14 00:41:33;;;;;;;33.78;23.88;;;;;;;16.02;47.13;92181.97;4975666;28;20498;-93
2023/04/14 00:44:00;;;;;;;32.60;24.05;;;;;;;15.99;47.30;92183.75;4976079;28;20042;-92
2023/04/14 00:46:26;;;;;;;32.70;22.92;;;;;;;16.02;46.93;92192.88;4975020;28;20037;-93
2023/04/14 00:48:51;;;;;;;30.63;20.92;;;;;;;16.05;47.23;92180.91;4976145;28;20034;-93
2023/04/14 00:51:17;;;;;;;32.45;23.42;;;;;;;16.03;46.73;92181.41;4975003;28;20125;-93
2023/04/14 00:53:42;;;;;;;26.77;21.25;;;;;;;16.01;46.72;92194.88;4956919;28;20042;-92
2023/04/14 00:56:08;;;;;;;32.97;21.25;;;;;;;16.03;46.80;92183.41;4971487;28;20030;-93
2023/04/14 00:58:33;;;;;;;28.83;22.20;;;;;;;16.02;47.29;92187.44;4971556;28;20401;-93
2023/04/14 01:00:59;;;;;;;30.10;21.67;;;;;;;15.99;47.10;92194.66;4962578;28;20386;-93
2023/04/14 01:03:25;;;;;;;28.65;20.67;;;;;;;15.97;47.17;92197.16;4968033;28;20042;-93
2023/04/14 01:05:50;;;;;;;29.02;20.55;;;;;;;15.99;46.99;92191.19;4957357;28;20042;-93
2023/04/14 01:08:16;;;;;;;31.17;19.67;;;;;;;15.96;46.80;92201.16;4984633;28;20049;-93
2023/04/14 01:10:46;;;;;;;29.15;21.00;;;;;;;15.94;47.06;92194.75;4954389;28;20365;-92
2023/04/14 01:13:35;;;;;;;29.33;21.08;;;;;;;15.93;46.89;92191.28;4941175;28;20102;-93
2023/04/14 01:16:03;;;;;;;26.38;20.45;;;;;;;15.96;47.15;92175.88;4944945;28;20065;-92
2023/04/14 01:18:51;;;;;;;29.55;20.58;;;;;;;15.95;46.74;92169.69;4954740;28;20497;-93
2023/04/14 01:21:19;;;;;;;28.98;19.05;;;;;;;15.98;46.87;92165.94;4974599;28;20037;-93
2023/04/14 01:24:07;;;;;;;29.67;20.85;;;;;;;15.97;47.01;92175.38;4955404;28;20111;-92
2023/04/14 01:26:32;;;;;;;25.77;18.83;;;;;;;15.98;46.89;92173.38;4970122;28;20101;-92
2023/04/14 01:29:28;;;;;;;27.30;20.02;;;;;;;15.98;46.70;92154.28;4938776;28;20050;-92
2023/04/14 01:32:07;;;;;;;27.73;20.45;;;;;;;15.96;46.70;92154.81;4986937;28;20331;-92
2023/04/14 01:34:37;;;;;;;25.63;18.73;;;;;;;15.94;46.61;92162.78;4939981;28;20122;-93
2023/04/14 01:37:07;;;;;;;23.90;17.77;;;;;;;15.93;46.78;92172.22;4938013;28;20046;-93
2023/04/14 01:39:37;;;;;;;25.37;19.50;;;;;;;15.94;46.97;92157.34;4948069;28;20038;-93
2023/04/14 01:42:05;;;;;;;25.05;19.00;;;;;;;15.90;47.21;92156.91;4967419;28;20046;-92
2023/04/14 01:44:30;;;;;;;24.10;17.55;;;;;;;15.92;46.67;92153.66;4975125;28;20544;-93
2023/04/14 01:46:58;;;;;;;23.95;17.52;;;;;;;15.93;46.97;92155.13;4964856;28;20074;-93
2023/04/14 01:49:24;;;;;;;20.70;15.43;;;;;;;15.95;46.84;92161.53;4974934;28;20058;-93
2023/04/14 01:51:50;;;;;;;25.02;18.20;;;;;;;15.98;46.93;92167.94;4974980;28;20136;-93
2023/04/14 01:54:15;;;;;;;25.02;17.45;;;;;;;15.91;47.05;92168.53;4973651;28;20053;-93
2023/04/14 01:56:41;;;;;;;24.45;17.67;;;;;;;15.92;46.87;92170.75;4955184;28;20038;-94
2023/04/14 01:59:07;;;;;;;23.60;15.75;;;;;;;15.93;46.84;92176.94;4955570;28;20042;-93
2023/04/14 02:01:33;;;;;;;26.48;17.52;;;;;;;15.90;47.00;92173.25;4978902;28;20105;-93
2023/04/14 02:03:59;;;;;;;22.02;15.20;;;;;;;15.96;46.72;92176.63;4974834;28;20057;-93
2023/04/14 02:06:26;;;;;;;22.80;16.63;;;;;;;16.02;46.82;92173.78;4971665;28;20039;-93
2023/04/14 02:08:51;;;;;;;24.27;17.25;;;;;;;15.93;47.17;92174.22;4955943;28;20034;-93
2023/04/14 02:11:17;;;;;;;20.40;14.90;;;;;;;15.98;46.93;92163.22;4971765;28;20049;-94
2023/04/14 02:13:43;;;;;;;22.95;16.38;;;;;;;15.94;46.74;92170.97;4956174;28;20038;-93
2023/04/14 02:16:09;;;;;;;24.27;17.27;;;;;;;15.91;46.88;92154.91;4955364;28;20105;-93
2023/04/14 02:18:34;;;;;;;23.65;17.10;;;;;;;15.91;46.97;92152.19;4971736;28;20039;-93
2023/04/14 02:21:00;;;;;;;27.40;16.75;;;;;;;15.87;46.98;92154.50;4956295;28;20035;-93
2023/04/14 02:23:27;;;;;;;21.92;14.90;;;;;;;15.96;46.74;92149.38;4955599;28;20046;-93
2023/04/14 02:26:00;;;;;;;20.63;15.07;;;;;;;15.89;46.67;92144.53;4972584;28;20529;-93
2023/04/14 02:28:27;;;;;;;19.67;14.57;;;;;;;15.90;46.82;92134.38;4971630;28;20461;-93
2023/04/14 02:30:53;;;;;;;22.13;14.93;;;;;;;15.89;46.62;92141.09;4956020;28;20137;-93
2023/04/14 02:33:21;;;;;;;23.05;15.85;;;;;;;15.85;47.04;92152.28;4955378;28;20129;-94
2023/04/14 02:35:47;;;;;;;21.80;15.98;;;;;;;15.91;47.00;92149.47;4971800;28;20675;-93
2023/04/14 02:38:17;;;;;;;20.48;15.50;;;;;;;15.92;46.76;92153.66;4952222;28;20672;-92
2023/04/14 02:40:43;;;;;;;20.60;15.40;;;;;;;15.95;46.59;92147.16;4955926;28;20031;-94
2023/04/14 02:43:15;;;;;;;23.52;16.15;;;;;;;15.91;46.59;92152.19;4972379;28;20306;-93
2023/04/14 02:45:41;;;;;;;19.63;14.20;;;;;;;15.90;46.65;92135.09;4975647;28;20044;-93
2023/04/14 02:48:08;;;;;;;20.98;15.50;;;;;;;15.92;46.62;92146.22;4974095;28;20396;-93
2023/04/14 02:50:33;;;;;;;20.02;15.18;;;;;;;15.95;46.68;92147.16;4974343;28;20048;-93
2023/04/14 02:52:59;;;;;;;22.67;15.57;;;;;;;15.92;46.87;92148.94;4976597;28;20042;-92
2023/04/14 02:55:24;;;;;;;21.23;15.18;;;;;;;15.95;46.62;92139.00;4977911;28;20041;-93
2023/04/14 02:57:50;;;;;;;19.15;13.73;;;;;;;15.94;46.56;92145.69;4977688;28;20448;-93
2023/04/14 03:00:16;;;;;;;18.25;13.98;;;;;;;15.90;46.73;92143.28;4978342;28;20053;-93
2023/04/14 03:02:45;;;;;;;20.63;14.00;;;;;;;15.91;46.61;92128.41;4978104;28;20042;-93
2023/04/14 03:05:10;;;;;;;20.23;14.18;;;;;;;15.91;46.50;92130.38;4977282;28;20062;-93
2023/04/14 03:07:39;;;;;;;20.55;13.95;;;;;;;15.90;46.80;92123.47;4972497;28;20065;-92
2023/04/14 03:10:05;;;;;;;22.60;14.55;;;;;;;15.90;46.74;92129.66;4958272;28;20038;-93
2023/04/14 03:12:31;;;;;;;19.77;14.63;;;;;;;15.89;46.67;92119.28;4960901;28;20045;-93
2023/04/14 03:14:57;;;;;;;21.17;13.80;;;;;;;15.90;46.51;92120.75;4977594;28;20030;-93
2023/04/14 03:17:22;;;;;;;20.75;15.50;;;;;;;15.88;46.95;92107.66;4977102;28;20053;-93
2023/04/14 03:19:48;;;;;;;19.48;13.13;;;;;;;15.89;46.21;92100.94;4977897;28;20030;-93
2023/04/14 03:22:14;;;;;;;18.50;13.85;;;;;;;15.91;46.52;92105.88;4965244;28;20053;-92
2023/04/14 03:24:40;;;;;;;17.70;13.57;;;;;;;15.86;46.54;92096.53;4955231;28;20042;-93
2023/04/14 03:27:08;;;;;;;17.88;13.13;;;;;;;15.85;46.60;92094.34;4986399;28;20038;-92
2023/04/14 03:29:40;;;;;;;17.45;11.80;;;;;;;15.88;46.58;92096.00;4987361;28;20031;-93
2023/04/14 03:32:06;;;;;;;17.30;12.48;;;;;;;15.88;46.60;92091.28;4971060;28;20078;-93
2023/04/14 03:34:33;;;;;;;17.88;11.95;;;;;;;15.85;46.69;92081.44;4954571;28;20046;-91
2023/04/14 03:36:58;;;;;;;17.17;12.25;;;;;;;15.88;46.59;92074.22;4957778;28;20046;-93
2023/04/14 03:39:31;;;;;;;17.60;12.65;;;;;;;15.84;46.67;92077.25;4973891;28;20030;-92
2023/04/14 03:41:57;;;;;;;19.40;13.27;;;;;;;15.89;46.48;92089.31;4955132;28;20035;-93
2023/04/14 03:44:24;;;;;;;16.92;12.88;;;;;;;15.93;46.30;92081.53;4983107;28;20060;-91
2023/04/14 03:46:49;;;;;;;17.48;13.23;;;;;;;15.84;46.62;92081.97;4957790;28;20039;-93
2023/04/14 03:49:15;;;;;;;21.15;13.30;;;;;;;15.88;46.53;92079.66;4954122;28;20050;-93
2023/04/14 03:51:41;;;;;;;20.73;13.45;;;;;;;15.86;46.81;92074.72;4986912;28;20047;-92
2023/04/14 03:54:06;;;;;;;20.15;14.43;;;;;;;15.83;46.50;92062.16;4986564;28;20109;-92
2023/04/14 03:56:36;;;;;;;21.27;13.75;;;;;;;15.83;47.12;92048.53;4977221;28;20045;-92
2023/04/14 03:59:02;;;;;;;20.90;14.20;;;;;;;15.90;46.87;92044.44;4967801;28;20038;-93
2023/04/14 04:01:28;;;;;;;20.85;13.95;;;;;;;15.87;46.56;92057.13;4957410;28;20046;-94
2023/04/14 04:03:53;;;;;;;24.27;16.30;;;;;;;15.91;46.94;92049.38;4973470;28;20072;-93
2023/04/14 04:06:19;;;;;;;23.98;16.45;;;;;;;15.91;46.67;92052.09;4958540;28;20042;-92
2023/04/14 04:08:46;;;;;;;23.70;16.70;;;;;;;15.92;46.97;92055.56;4969143;28;20042;-92
2023/04/14 04:11:11;;;;;;;19.50;14.52;;;;;;;15.86;46.64;92066.56;4972137;28;20042;-92
2023/04/14 04:13:37;;;;;;;24.33;15.35;;;;;;;15.89;46.74;92062.06;4976374;28;20412;-93
2023/04/14 04:16:02;;;;;;;19.52;13.35;;;;;;;15.86;46.69;92054.94;4974173;28;20034;-92
2023/04/14 04:18:27;;;;;;;22.20;14.50;;;;;;;15.90;46.60;92068.97;4992162;28;20045;-93
2023/04/14 04:20:54;;;;;;;24.40;16.23;;;;;;;15.87;46.79;92073.47;4976641;28;20026;-93
2023/04/14 04:23:20;;;;;;;25.45;15.80;;;;;;;15.86;46.82;92071.28;4975912;28;20282;-93
2023/04/14 04:25:46;;;;;;;23.58;15.80;;;;;;;15.80;46.75;92068.69;4976814;28;20448;-93
2023/04/14 04:28:11;;;;;;;18.73;13.75;;;;;;;15.83;46.90;92064.16;4975381;28;20050;-92
2023/04/14 04:30:42;;;;;;;20.02;13.43;;;;;;;15.86;46.78;92068.56;4976545;28;20489;-94
2023/04/14 04:33:07;;;;;;;20.80;14.55;;;;;;;15.86;46.74;92072.00;4975981;28;20041;-93
2023/04/14 04:35:33;;;;;;;24.35;13.55;;;;;;;15.84;46.72;92082.69;4976187;28;20401;-92
2023/04/14 04:38:02;;;;;;;21.35;13.93;;;;;;;15.77;46.80;92075.91;4950313;28;20138;-93
2023/04/14 04:40:34;;;;;;;21.63;14.52;;;;;;;15.81;46.76;92072.84;4968648;28;20544;-93
2023/04/14 04:42:59;;;;;;;16.90;11.60;;;;;;;15.68;46.98;92078.31;4962225;28;20069;-92
2023/04/14 04:45:41;;;;;;;19.20;12.98;;;;;;;15.75;47.30;92080.41;4975808;28;20448;-92
2023/04/14 04:48:06;;;;;;;17.73;12.27;;;;;;;15.77;47.07;92075.19;4968947;28;20051;-92
2023/04/14 04:50:32;;;;;;;30.60;14.40;;;;;;;15.71;46.36;92066.38;4956769;28;20041;-93
2023/04/14 04:52:57;;;;;;;46.65;12.15;;;;;;;15.64;45.62;92062.28;4956934;28;20039;-92
2023/04/14 04:55:23;;;;;;;41.83;13.38;;;;;;;15.73;45.33;92064.59;4957148;28;20042;-92
2023/04/14 04:57:48;;;;;;;39.47;13.75;;;;;;;15.71;46.02;92066.38;4969444;28;20406;-93
2023/04/14 05:00:14;;;;;;;35.53;12.48;;;;;;;15.79;45.80;92059.03;4975579;28;20415;-92
2023/04/14 05:02:40;;;;;;;32.78;14.30;;;;;;;15.77;46.24;92062.28;4974038;28;20081;-92
2023/04/14 05:05:07;;;;;;;42.90;13.05;;;;;;;15.72;46.38;92065.13;4975036;28;20034;-93
2023/04/14 05:07:33;;;;;;;28.58;11.93;;;;;;;15.80;46.39;92062.50;4952098;28;20046;-93
2023/04/14 05:09:59;;;;;;;20.35;10.35;;;;;;;15.83;46.70;92075.06;4959361;28;20423;-92
2023/04/14 05:12:24;;;;;;;17.13;9.13;;;;;;;15.71;46.66;92061.66;4946531;28;20056;-92
2023/04/14 05:14:51;;;;;;;38.30;13.77;;;;;;;15.81;46.57;92063.94;4958634;28;20440;-91
2023/04/14 05:17:17;;;;;;;31.95;12.40;;;;;;;15.80;46.70;92073.41;4990874;28;20138;-94
2023/04/14 05:19:43;;;;;;;18.17;9.70;;;;;;;15.75;46.75;92072.97;4940166;28;20209;-92
2023/04/14 05:22:09;;;;;;;20.38;10.52;;;;;;;15.80;46.18;92076.84;4960063;28;20049;-91
2023/04/14 05:24:34;;;;;;;18.98;9.75;;;;;;;15.76;46.72;92077.16;4959696;28;20046;-92
2023/04/14 05:27:00;;;;;;;21.23;10.07;;;;;;;15.77;46.26;92067.75;4955803;28;20053;-91
2023/04/14 05:29:35;;;;;;;19.38;9.85;;;;;;;15.83;46.43;92075.06;4952163;28;20056;-91
2023/04/14 05:32:01;;;;;;;16.88;9.93;;;;;;;15.77;46.60;92081.38;4978262;28;20995;-92
2023/04/14 05:34:26;;;;;;;22.48;10.77;;;;;;;15.78;46.57;92082.09;4964994;28;20045;-93
2023/04/14 05:36:52;;;;;;;31.88;18.65;;;;;;;15.77;46.69;92080.63;4982720;28;20042;-92
2023/04/14 05:39:19;;;;;;;23.05;12.60;;;;;;;15.71;46.65;92083.47;4970761;28;20059;-91
2023/04/14 05:41:46;;;;;;;21.30;11.20;;;;;;;15.71;46.59;92071.81;4975530;28;20045;-91
2023/04/14 05:44:13;;;;;;;25.08;12.80;;;;;;;15.70;46.96;92070.34;4985821;22;20050;-90
2023/04/14 05:46:38;;;;;;;66.20;44.00;;;;;;;15.77;46.65;92069.72;4964781;28;20489;-92
2023/04/14 05:49:08;;;;;;;33.60;14.77;;;;;;;15.68;46.74;92095.41;4940654;28;20326;-94
2023/04/14 05:51:37;;;;;;;33.78;14.60;;;;;;;15.74;46.30;92084.41;4983425;23;20047;-93
2023/04/14 05:54:06;;;;;;;29.00;14.52;;;;;;;15.77;46.68;92084.09;4977519;28;20062;-93
2023/04/14 05:56:32;;;;;;;29.25;14.27;;;;;;;15.85;46.31;92062.38;4960237;28;20049;-93
2023/04/14 05:58:59;;;;;;;27.83;14.32;;;;;;;15.82;46.53;92060.69;4969564;28;20039;-94
2023/04/14 06:01:24;;;;;;;28.90;15.00;;;;;;;15.84;46.22;92058.19;4970415;28;20502;-90
2023/04/14 06:03:50;;;;;;;29.02;14.95;;;;;;;15.75;46.40;92048.47;4977056;28;20066;-91
2023/04/14 06:06:16;;;;;;;24.40;14.25;;;;;;;15.81;46.70;92050.31;4984019;28;20096;-92
2023/04/14 06:08:41;;;;;;;40.60;17.05;;;;;;;15.79;46.59;92059.03;4994812;28;20050;-92
2023/04/14 06:11:07;;;;;;;32.28;16.42;;;;;;;15.74;46.35;92070.78;4963488;28;20529;-91
2023/04/14 06:13:32;;;;;;;47.40;17.98;;;;;;;15.81;46.39;92069.38;4981495;28;20046;-93
2023/04/14 06:15:59;;;;;;;39.80;18.35;;;;;;;15.77;46.73;92053.38;4971241;28;20107;-93
2023/04/14 06:18:25;;;;;;;38.90;19.73;;;;;;;15.86;46.50;92065.81;4949706;28;20375;-93
2023/04/14 06:20:50;;;;;;;44.35;20.02;;;;;;;15.86;46.98;92060.38;4956460;28;20133;-91
2023/04/14 06:23:16;;;;;;;43.42;21.35;;;;;;;15.82;46.17;92057.97;4953834;28;20043;-91
2023/04/14 06:25:41;;;;;;;47.50;21.60;;;;;;;15.83;46.58;92061.44;4951776;28;20123;-93
2023/04/14 06:28:07;;;;;;;42.95;21.75;;;;;;;15.84;46.65;92060.91;4974652;28;20039;-94
2023/04/14 06:30:33;;;;;;;52.25;21.90;;;;;;;15.83;46.63;92064.88;4960970;28;20113;-93
2023/04/14 06:33:03;;;;;;;49.78;22.45;;;;;;;15.84;46.54;92069.06;5013374;28;20038;-92
2023/04/14 06:35:30;;;;;;;40.10;21.90;;;;;;;15.82;46.72;92066.13;4977234;28;20046;-93
2023/04/14 06:37:56;;;;;;;48.30;23.55;;;;;;;15.87;46.49;92068.03;4986317;28;20033;-93
2023/04/14 06:40:21;;;;;;;48.17;21.30;;;;;;;15.77;46.49;92059.56;5007999;28;20050;-93
2023/04/14 06:42:47;;;;;;;41.75;20.77;;;;;;;15.86;47.02;92055.66;4991701;28;20100;-94
2023/04/14 06:45:12;;;;;;;41.88;20.80;;;;;;;15.89;46.33;92067.50;5010186;28;20140;-90
2023/04/14 06:47:39;;;;;;;47.63;21.50;;;;;;;15.78;46.75;92054.84;4971729;28;20132;-93
2023/04/14 06:50:05;;;;;;;46.35;22.88;;;;;;;15.82;46.78;92054.50;5001517;28;20105;-93
2023/04/14 06:52:30;;;;;;;46.35;23.30;;;;;;;15.82;46.87;92044.34;4990653;28;20034;-93
2023/04/14 06:54:56;;;;;;;58.65;26.63;;;;;;;15.80;46.61;92048.88;5014706;28;20242;-92
2023/04/14 06:57:21;;;;;;;70.30;29.15;;;;;;;15.81;46.88;92045.59;4984669;28;20038;-93
2023/04/14 06:59:47;;;;;;;71.38;32.53;;;;;;;15.91;46.63;92048.63;4996364;23;20034;-92
2023/04/14 07:02:12;;;;;;;75.43;36.25;;;;;;;15.94;46.42;92053.78;4975115;28;20129;-91
2023/04/14 07:04:38;;;;;;;103.53;49.40;;;;;;;15.95;46.48;92049.06;4969314;28;20049;-91
2023/04/14 07:07:03;;;;;;;105.28;50.75;;;;;;;15.82;46.97;92030.72;4980212;28;20046;-91
2023/04/14 07:09:29;;;;;;;98.88;47.97;;;;;;;15.80;46.52;92041.44;4991877;28;20067;-91
2023/04/14 07:11:56;;;;;;;106.43;54.90;;;;;;;15.83;46.91;92029.47;4998227;28;20066;-92
2023/04/14 07:14:22;;;;;;;135.23;56.72;;;;;;;15.81;46.71;92031.25;4974298;28;20157;-91
2023/04/14 07:16:50;;;;;;;99.82;47.55;;;;;;;15.84;46.60;92033.66;4976515;28;20564;-89
2023/04/14 07:19:18;;;;;;;120.60;55.30;;;;;;;15.94;46.74;92045.59;4972420;28;20043;-91
2023/04/14 07:21:47;;;;;;;112.55;50.95;;;;;;;15.82;46.82;92038.91;4955790;28;20038;-90
2023/04/14 07:24:12;;;;;;;114.35;51.92;;;;;;;15.84;47.24;92041.81;4961088;28;20045;-89
2023/04/14 07:26:38;;;;;;;140.68;61.28;;;;;;;15.90;46.75;92039.00;4993840;28;20399;-92
2023/04/14 07:29:04;;;;;;;168.52;77.57;;;;;;;15.94;46.50;92042.13;4997941;28;20044;-91
2023/04/14 07:31:34;;;;;;;134.30;63.45;;;;;;;15.86;46.66;92044.03;4946799;28;20042;-91
2023/04/14 07:34:00;;;;;;;135.15;63.03;;;;;;;15.94;46.57;92051.03;4987508;28;20038;-92
2023/04/14 07:36:25;;;;;;;134.15;62.33;;;;;;;15.90;46.84;92056.06;4960362;28;20047;-92
2023/04/14 07:38:51;;;;;;;143.43;64.55;;;;;;;15.95;46.91;92062.69;4997082;28;20611;-92
2023/04/14 07:41:17;;;;;;;146.48;70.03;;;;;;;15.91;46.81;92068.44;4974240;28;20079;-92
2023/04/14 07:43:42;;;;;;;139.52;69.68;;;;;;;15.97;46.81;92077.25;4965411;28;20038;-91
2023/04/14 07:46:08;;;;;;;154.32;77.80;;;;;;;15.96;46.92;92077.78;4958800;28;20042;-92
2023/04/14 07:48:35;;;;;;;157.20;76.45;;;;;;;15.93;46.98;92082.28;4961730;28;20071;-93
2023/04/14 07:51:01;;;;;;;161.68;79.60;;;;;;;15.88;46.93;92076.94;4963905;28;20038;-93
2023/04/14 07:53:27;;;;;;;145.43;76.75;;;;;;;15.95;46.87;92084.47;4977027;28;20477;-94
2023/04/14 07:55:53;;;;;;;151.60;76.22;;;;;;;15.94;46.70;92074.84;4989803;28;20045;-92
2023/04/14 07:58:20;;;;;;;148.02;74.18;;;;;;;15.97;46.81;92079.25;4973435;28;20164;-93
2023/04/14 08:00:45;;;;;;;140.02;72.10;;;;;;;15.98;46.41;92081.44;4977439;28;20069;-92
2023/04/14 08:03:12;;;;;;;148.10;75.45;;;;;;;15.94;46.70;92075.56;4974194;28;20039;-91
2023/04/14 08:05:37;;;;;;;155.27;78.05;;;;;;;15.89;46.43;92070.22;4934416;28;20183;-91
2023/04/14 08:08:03;;;;;;;172.88;73.03;;;;;;;15.95;46.56;92079.03;4935384;28;20046;-89
2023/04/14 08:10:29;;;;;;;143.57;72.03;;;;;;;15.98;46.63;92089.63;4967026;28;20054;-91
2023/04/14 08:12:56;;;;;;;158.70;87.65;;;;;;;16.01;46.57;92096.00;4973617;28;20050;-93
2023/04/14 08:15:23;;;;;;;230.13;120.47;;;;;;;15.95;46.51;92089.94;4956305;28;20137;-94
2023/04/14 08:17:48;;;;;;;133.52;69.20;;;;;;;16.04;46.42;92078.56;4950399;28;20536;-91
2023/04/14 08:20:15;;;;;;;131.32;65.80;;;;;;;15.99;46.65;92077.44;4946883;28;20047;-93
2023/04/14 08:22:42;;;;;;;126.32;63.95;;;;;;;15.98;46.75;92077.97;4938061;28;20049;-93
2023/04/14 08:25:10;;;;;;;121.25;63.05;;;;;;;15.97;46.61;92084.69;4958899;28;20106;-93
2023/04/14 08:27:40;;;;;;;121.80;63.53;;;;;;;15.94;46.65;92083.00;4958934;28;20639;-93
2023/04/14 08:30:07;;;;;;;121.28;60.28;;;;;;;15.95;46.62;92074.31;4942506;28;20110;-92
2023/04/14 08:32:32;;;;;;;115.63;60.55;;;;;;;15.93;46.71;92087.00;4936631;28;20129;-89
2023/04/14 08:34:59;;;;;;;118.45;58.95;;;;;;;15.97;46.89;92090.16;4947638;28;20130;-93
2023/04/14 08:37:25;;;;;;;109.63;56.92;;;;;;;15.94;46.28;92077.56;4930471;28;20054;-91
2023/04/14 08:39:52;;;;;;;110.45;55.50;;;;;;;15.86;46.81;92068.56;4925217;29;20055;-92
2023/04/14 08:42:17;;;;;;;110.78;56.75;;;;;;;15.85;46.97;92064.34;4917880;29;20043;-92
2023/04/14 08:44:43;;;;;;;89.88;51.00;;;;;;;15.97;46.47;92068.34;4935580;28;20055;-90
2023/04/14 08:47:08;;;;;;;107.63;57.33;;;;;;;15.93;46.80;92062.47;4936702;28;20043;-91
2023/04/14 08:49:41;;;;;;;106.38;57.33;;;;;;;15.93;46.90;92073.38;4961407;28;20513;-90
2023/04/14 08:52:10;;;;;;;130.82;66.28;;;;;;;15.92;46.87;92075.38;4950518;28;20047;-91
2023/04/14 08:54:37;;;;;;;104.03;53.53;;;;;;;15.94;46.52;92064.66;4948313;28;20418;-92
2023/04/14 08:57:02;;;;;;;101.10;53.85;;;;;;;15.90;46.97;92066.97;4959787;28;20169;-93
2023/04/14 08:59:27;;;;;;;90.50;49.38;;;;;;;15.92;46.91;92069.91;4940550;28;20129;-92
2023/04/14 09:01:53;;;;;;;99.93;51.88;;;;;;;15.91;46.64;92059.53;4969884;28;20070;-93
2023/04/14 09:04:19;;;;;;;100.30;52.47;;;;;;;15.86;46.81;92063.09;4949522;28;20055;-91
2023/04/14 09:06:44;;;;;;;90.95;51.70;;;;;;;15.94;46.75;92047.59;4972441;28;20058;-92
2023/04/14 09:09:10;;;;;;;98.00;54.70;;;;;;;15.85;46.67;92062.38;4959111;28;20050;-92
2023/04/14 09:11:36;;;;;;;108.90;55.13;;;;;;;15.95;46.59;92059.94;4953294;28;20046;-92
2023/04/14 09:14:01;;;;;;;126.05;66.15;;;;;;;15.93;46.52;92068.66;4979502;28;20048;-93
2023/04/14 09:16:27;;;;;;;111.90;58.92;;;;;;;15.92;46.60;92067.19;4954050;28;20038;-92
2023/04/14 09:18:53;;;;;;;107.63;59.40;;;;;;;15.94;46.98;92063.94;4954599;28;20085;-94
2023/04/14 09:21:18;;;;;;;103.70;55.63;;;;;;;15.89;46.57;92081.88;4956747;28;20061;-93
2023/04/14 09:23:45;;;;;;;118.75;67.43;;;;;;;15.98;46.85;92084.16;4960345;28;20043;-92
2023/04/14 09:26:12;;;;;;;115.07;66.03;;;;;;;15.96;46.67;92077.78;4974004;28;20153;-92
2023/04/14 09:28:40;;;;;;;146.55;85.28;;;;;;;16.00;46.35;92078.91;5006544;28;20065;-92
2023/04/14 09:31:06;;;;;;;151.27;85.00;;;;;;;15.98;46.46;92084.16;4973085;28;20049;-92
2023/04/14 09:33:32;;;;;;;168.32;100.10;;;;;;;15.96;46.53;92083.97;5007459;28;20038;-93
2023/04/14 09:35:58;;;;;;;178.30;101.32;;;;;;;15.99;46.73;92085.63;4980463;28;20053;-93
2023/04/14 09:38:35;;;;;;;192.20;107.60;;;;;;;15.94;46.46;92067.41;4959371;28;20417;-92
2023/04/14 09:41:00;;;;;;;200.25;116.90;;;;;;;15.91;46.79;92079.34;4977861;28;20043;-93
2023/04/14 09:43:26;;;;;;;214.20;128.75;;;;;;;15.97;46.97;92079.25;4956753;28;20057;-93
2023/04/14 09:45:52;;;;;;;218.40;128.93;;;;;;;15.94;46.60;92077.56;4982761;28;20058;-92
2023/04/14 09:48:18;;;;;;;217.73;131.25;;;;;;;16.03;46.48;92077.84;4939801;28;20050;-92
2023/04/14 09:50:57;;;;;;;239.82;138.07;;;;;;;16.00;46.63;92075.47;5005147;28;20101;-93
2023/04/14 09:53:33;;;;;;;248.68;142.38;;;;;;;15.91;46.79;92079.34;4971340;28;20042;-91
2023/04/14 09:56:01;;;;;;;226.13;127.55;;;;;;;16.03;46.30;92088.00;4967431;28;20232;-92
2023/04/14 09:58:34;;;;;;;232.55;133.85;;;;;;;15.97;46.74;92084.69;4957276;28;20043;-92
2023/04/14 10:01:01;;;;;;;234.15;143.70;;;;;;;15.93;46.66;92074.09;4959984;28;20046;-92
2023/04/14 10:03:40;;;;;;;223.77;134.98;;;;;;;15.93;46.63;92076.81;4985984;28;20060;-93
2023/04/14 10:06:09;;;;;;;209.02;131.45;;;;;;;16.01;46.71;92074.19;5010349;28;20038;-94
2023/04/14 10:08:38;;;;;;;219.13;129.40;;;;;;;16.06;46.24;92078.78;5010995;28;20034;-94
2023/04/14 10:11:23;;;;;;;200.43;122.32;;;;;;;16.00;46.37;92075.47;4994109;28;20049;-94
2023/04/14 10:13:56;;;;;;;219.00;129.52;;;;;;;16.00;46.57;92068.03;4995555;28;20640;-92
2023/04/14 10:16:22;;;;;;;203.77;122.80;;;;;;;16.02;46.35;92059.31;4956325;28;20097;-93
2023/04/14 10:18:47;;;;;;;196.65;121.65;;;;;;;15.95;46.61;92065.41;4957081;28;20518;-91
2023/04/14 10:21:14;;;;;;;190.00;115.70;;;;;;;16.05;46.42;92063.69;4982286;28;20061;-92
2023/04/14 10:23:40;;;;;;;191.50;114.40;;;;;;;16.02;46.63;92054.56;5008915;28;20115;-91
2023/04/14 10:26:06;;;;;;;174.73;110.88;;;;;;;16.05;46.42;92060.97;4976889;28;20045;-93
2023/04/14 10:28:34;;;;;;;183.88;112.93;;;;;;;16.02;46.64;92060.03;4992625;28;20061;-92
2023/04/14 10:31:00;;;;;;;182.43;116.30;;;;;;;16.02;46.57;92062.03;4958188;28;20050;-94
2023/04/14 10:33:26;;;;;;;182.23;108.70;;;;;;;16.08;46.62;92066.09;4960400;28;20050;-91
2023/04/14 10:35:56;;;;;;;187.38;118.05;;;;;;;16.01;46.37;92069.50;5008334;28;20069;-93
2023/04/14 10:38:21;;;;;;;189.00;112.20;;;;;;;16.06;46.37;92056.97;4969266;28;20417;-93
2023/04/14 10:40:50;;;;;;;181.27;114.20;;;;;;;16.01;46.63;92066.03;4965066;28;20098;-92
2023/04/14 10:43:15;;;;;;;169.15;106.22;;;;;;;16.06;46.24;92068.63;4971917;28;20398;-93
2023/04/14 10:45:54;;;;;;;162.77;104.57;;;;;;;16.02;46.71;92070.94;4972061;28;20043;-92
2023/04/14 10:48:21;;;;;;;185.95;107.60;;;;;;;16.08;46.75;92065.38;4954840;28;20109;-92
2023/04/14 10:50:48;;;;;;;182.43;108.97;;;;;;;16.09;46.62;92062.13;5001397;28;20129;-91
2023/04/14 10:53:13;;;;;;;185.70;110.45;;;;;;;16.05;46.58;92063.69;4975351;28;20085;-92
2023/04/14 10:55:45;;;;;;;181.40;108.35;;;;;;;16.06;46.83;92056.97;5007089;28;20042;-93
2023/04/14 10:58:18;;;;;;;176.35;111.43;;;;;;;16.05;46.88;92050.78;4954706;28;20040;-90
2023/04/14 11:00:43;;;;;;;200.27;115.00;;;;;;;16.02;46.92;92056.59;4983029;28;20051;-94
2023/04/14 11:03:09;;;;;;;177.30;112.28;;;;;;;16.03;47.04;92061.50;4960322;28;20556;-93
2023/04/14 11:05:35;;;;;;;181.07;111.57;;;;;;;16.07;46.77;92055.72;4974806;28;20524;-93
2023/04/14 11:08:11;;;;;;;194.38;113.20;;;;;;;16.07;46.78;92061.91;5007409;28;20042;-93
2023/04/14 11:10:37;;;;;;;177.02;105.97;;;;;;;16.00;46.85;92061.84;4969459;28;20080;-94
2023/04/14 11:13:07;;;;;;;180.68;112.68;;;;;;;16.02;46.70;92053.88;4969003;28;20042;-93